createdAt,value
2018-06-21T00:00:23.788Z,16.20
2018-06-21T00:01:23.770Z,16.15
2018-06-21T00:02:23.757Z,16.15
2018-06-21T00:03:23.740Z,16.14
2018-06-21T00:04:23.727Z,16.11
2018-06-21T00:05:23.714Z,16.07
2018-06-21T00:06:23.702Z,16.11
2018-06-21T00:07:23.687Z,16.12
2018-06-21T00:08:23.676Z,16.11
2018-06-21T00:09:23.665Z,16.11
2018-06-21T00:10:23.647Z,16.07
2018-06-21T00:11:23.638Z,16.12
2018-06-21T00:12:23.621Z,16.09
2018-06-21T00:13:23.611Z,16.11
2018-06-21T00:14:23.592Z,16.12
2018-06-21T00:15:23.583Z,16.03
2018-06-21T00:16:23.569Z,16.06
2018-06-21T00:17:23.551Z,16.03
2018-06-21T00:18:23.554Z,16.20
2018-06-21T00:19:23.525Z,16.27
2018-06-21T00:20:23.518Z,16.20
2018-06-21T00:21:23.505Z,16.22
2018-06-21T00:22:23.489Z,16.20
2018-06-21T00:23:23.473Z,16.18
2018-06-21T00:24:23.462Z,16.07
2018-06-21T00:25:23.449Z,16.16
2018-06-21T00:26:23.425Z,16.15
2018-06-21T00:27:23.419Z,16.14
2018-06-21T00:28:23.409Z,16.16
2018-06-21T00:29:23.448Z,16.06
2018-06-21T00:30:23.376Z,16.23
2018-06-21T00:31:23.372Z,16.18
2018-06-21T00:32:23.355Z,16.09
2018-06-21T00:33:23.335Z,16.18
2018-06-21T00:34:23.327Z,16.20
2018-06-21T00:35:23.307Z,16.23
2018-06-21T00:36:23.300Z,16.15
2018-06-21T00:37:23.281Z,16.23
2018-06-21T00:38:23.265Z,16.27
2018-06-21T00:39:23.252Z,16.34
2018-06-21T00:40:23.239Z,16.33
2018-06-21T00:41:23.226Z,16.40
2018-06-21T00:42:23.213Z,16.38
2018-06-21T00:43:23.201Z,16.33
2018-06-21T00:44:23.185Z,16.48
2018-06-21T00:45:23.176Z,16.37
2018-06-21T00:46:23.163Z,16.37
2018-06-21T00:47:23.143Z,16.38
2018-06-21T00:48:23.134Z,16.38
2018-06-21T00:49:23.134Z,16.41
2018-06-21T00:50:23.106Z,16.34
2018-06-21T00:51:23.096Z,16.38
2018-06-21T00:52:23.079Z,16.23
2018-06-21T00:53:23.063Z,16.30
2018-06-21T00:54:23.057Z,16.30
2018-06-21T00:55:23.035Z,16.22
2018-06-21T00:56:23.028Z,16.22
2018-06-21T00:57:23.008Z,16.26
2018-06-21T00:58:22.995Z,16.22
2018-06-21T00:59:22.982Z,16.14
2018-06-21T01:00:22.967Z,16.18
2018-06-21T01:01:22.960Z,16.06
2018-06-21T01:02:22.944Z,16.16
2018-06-21T01:03:22.931Z,16.09
2018-06-21T01:04:22.912Z,16.11
2018-06-21T01:05:22.902Z,16.14
2018-06-21T01:06:22.893Z,16.12
2018-06-21T01:07:22.874Z,16.11
2018-06-21T01:08:22.858Z,16.09
2018-06-21T01:09:22.854Z,16.14
2018-06-21T01:10:22.832Z,16.03
2018-06-21T01:11:22.815Z,16.06
2018-06-21T01:12:22.805Z,16.01
2018-06-21T01:13:22.794Z,16.03
2018-06-21T01:14:22.783Z,16.01
2018-06-21T01:15:22.760Z,15.94
2018-06-21T01:16:22.747Z,15.93
2018-06-21T01:17:22.741Z,15.78
2018-06-21T01:18:22.725Z,15.89
2018-06-21T01:19:22.712Z,15.79
2018-06-21T01:20:22.700Z,15.76
2018-06-21T01:21:22.684Z,15.79
2018-06-21T01:22:22.664Z,15.76
2018-06-21T01:23:22.655Z,15.76
2018-06-21T01:24:22.648Z,15.86
2018-06-21T01:25:22.636Z,15.85
2018-06-21T01:26:22.611Z,15.89
2018-06-21T01:27:22.598Z,15.92
2018-06-21T01:28:22.585Z,15.78
2018-06-21T01:29:22.568Z,15.88
2018-06-21T01:30:22.559Z,15.85
2018-06-21T01:31:22.540Z,15.78
2018-06-21T01:32:22.530Z,15.72
2018-06-21T01:33:22.518Z,15.66
2018-06-21T01:34:22.504Z,15.72
2018-06-21T01:35:22.485Z,15.78
2018-06-21T01:36:22.476Z,15.72
2018-06-21T01:37:22.463Z,15.70
2018-06-21T01:38:22.450Z,15.67
2018-06-21T01:39:22.428Z,15.66
2018-06-21T01:40:22.418Z,15.81
2018-06-21T01:41:22.403Z,16.01
2018-06-21T01:42:22.396Z,15.89
2018-06-21T01:43:22.377Z,16.01
2018-06-21T01:44:22.364Z,16.06
2018-06-21T01:45:22.343Z,16.01
2018-06-21T01:46:22.337Z,16.03
2018-06-21T01:47:22.322Z,15.97
2018-06-21T01:48:22.305Z,15.92
2018-06-21T01:49:22.298Z,15.89
2018-06-21T01:50:22.281Z,15.78
2018-06-21T01:51:22.265Z,15.89
2018-06-21T01:52:22.253Z,15.84
2018-06-21T01:53:22.240Z,15.89
2018-06-21T01:54:22.221Z,15.89
2018-06-21T01:55:22.211Z,15.86
2018-06-21T01:56:22.195Z,15.96
2018-06-21T01:57:22.183Z,16.01
2018-06-21T01:58:22.176Z,16.01
2018-06-21T01:59:22.151Z,16.00
2018-06-21T02:00:22.136Z,16.06
2018-06-21T02:01:22.122Z,16.04
2018-06-21T02:02:22.109Z,16.03
2018-06-21T02:03:22.093Z,16.06
2018-06-21T02:04:22.087Z,16.03
2018-06-21T02:05:22.067Z,15.92
2018-06-21T02:06:22.061Z,15.92
2018-06-21T02:07:22.036Z,15.93
2018-06-21T02:08:22.024Z,15.84
2018-06-21T02:09:22.014Z,15.84
2018-06-21T02:10:22.008Z,15.86
2018-06-21T02:11:21.988Z,15.84
2018-06-21T02:12:21.975Z,15.76
2018-06-21T02:13:21.960Z,15.66
2018-06-21T02:14:21.940Z,15.74
2018-06-21T02:15:21.924Z,15.66
2018-06-21T02:16:21.914Z,15.74
2018-06-21T02:17:21.898Z,15.51
2018-06-21T02:18:21.886Z,15.59
2018-06-21T02:19:21.870Z,15.63
2018-06-21T02:20:21.857Z,15.64
2018-06-21T02:21:21.845Z,15.51
2018-06-21T02:22:21.827Z,15.60
2018-06-21T02:23:21.814Z,15.70
2018-06-21T02:24:21.802Z,15.66
2018-06-21T02:25:21.788Z,15.72
2018-06-21T02:26:21.779Z,15.76
2018-06-21T02:27:21.763Z,15.72
2018-06-21T02:28:21.750Z,15.72
2018-06-21T02:29:21.731Z,15.76
2018-06-21T02:30:21.719Z,15.75
2018-06-21T02:31:21.705Z,15.76
2018-06-21T02:32:21.697Z,15.81
2018-06-21T02:33:21.680Z,15.79
2018-06-21T02:34:21.722Z,15.81
2018-06-21T02:35:21.648Z,15.92
2018-06-21T02:36:21.635Z,15.86
2018-06-21T02:37:21.617Z,15.97
2018-06-21T02:38:21.602Z,16.00
2018-06-21T02:39:21.597Z,16.06
2018-06-21T02:40:21.582Z,16.12
2018-06-21T02:41:21.569Z,16.12
2018-06-21T02:42:21.553Z,16.07
2018-06-21T02:43:21.534Z,16.09
2018-06-21T02:44:21.521Z,16.15
2018-06-21T02:45:21.506Z,16.07
2018-06-21T02:46:21.494Z,16.07
2018-06-21T02:47:21.477Z,16.11
2018-06-21T02:48:21.470Z,16.03
2018-06-21T02:49:21.451Z,16.01
2018-06-21T02:50:21.441Z,16.04
2018-06-21T02:51:21.423Z,16.12
2018-06-21T02:52:21.411Z,16.04
2018-06-21T02:53:21.398Z,16.03
2018-06-21T02:54:21.380Z,16.03
2018-06-21T02:55:21.373Z,16.01
2018-06-21T02:56:21.364Z,16.09
2018-06-21T02:57:21.341Z,16.04
2018-06-21T02:58:21.326Z,16.03
2018-06-21T02:59:21.313Z,16.11
2018-06-21T03:00:21.303Z,16.15
2018-06-21T03:01:21.287Z,16.04
2018-06-21T03:02:21.271Z,16.06
2018-06-21T03:03:21.258Z,16.18
2018-06-21T03:04:21.261Z,16.22
2018-06-21T03:05:21.230Z,16.25
2018-06-21T03:06:21.227Z,16.23
2018-06-21T03:07:21.200Z,16.20
2018-06-21T03:08:21.192Z,16.16
2018-06-21T03:09:21.185Z,16.15
2018-06-21T03:10:21.161Z,16.22
2018-06-21T03:11:21.152Z,16.23
2018-06-21T03:12:21.138Z,16.16
2018-06-21T03:13:21.125Z,16.25
2018-06-21T03:14:21.109Z,16.31
2018-06-21T03:15:21.090Z,16.33
2018-06-21T03:16:21.075Z,16.38
2018-06-21T03:17:21.065Z,16.38
2018-06-21T03:18:21.052Z,16.33
2018-06-21T03:19:21.043Z,16.30
2018-06-21T03:20:21.030Z,16.23
2018-06-21T03:21:21.019Z,16.26
2018-06-21T03:22:21.004Z,16.26
2018-06-21T03:23:20.981Z,16.15
2018-06-21T03:24:20.972Z,16.16
2018-06-21T03:25:20.959Z,16.14
2018-06-21T03:26:20.940Z,16.07
2018-06-21T03:27:20.927Z,16.18
2018-06-21T03:28:20.914Z,16.12
2018-06-21T03:29:20.905Z,16.09
2018-06-21T03:30:20.889Z,16.03
2018-06-21T03:31:20.873Z,16.00
2018-06-21T03:32:20.863Z,16.01
2018-06-21T03:33:20.847Z,16.00
2018-06-21T03:34:20.837Z,16.03
2018-06-21T03:35:20.861Z,16.03
2018-06-21T03:36:20.811Z,16.03
2018-06-21T03:37:20.790Z,16.06
2018-06-21T03:38:20.780Z,16.00
2018-06-21T03:39:20.763Z,16.01
2018-06-21T03:40:20.751Z,16.03
2018-06-21T03:41:20.736Z,16.01
2018-06-21T03:42:20.732Z,16.04
2018-06-21T03:43:20.713Z,16.01
2018-06-21T03:44:20.696Z,16.03
2018-06-21T03:45:20.684Z,16.04
2018-06-21T03:46:20.672Z,16.09
2018-06-21T03:47:20.654Z,16.11
2018-06-21T03:48:20.640Z,16.12
2018-06-21T03:49:20.632Z,16.11
2018-06-21T03:50:20.620Z,16.04
2018-06-21T03:51:20.603Z,16.04
2018-06-21T03:52:20.668Z,15.96
2018-06-21T03:53:20.568Z,15.99
2018-06-21T03:54:20.558Z,16.04
2018-06-21T03:55:20.548Z,16.04
2018-06-21T03:56:20.529Z,15.89
2018-06-21T03:57:20.522Z,16.00
2018-06-21T03:58:20.500Z,15.92
2018-06-21T03:59:20.485Z,15.89
2018-06-21T04:00:20.474Z,15.92
2018-06-21T04:01:20.462Z,15.99
2018-06-21T04:02:20.449Z,15.94
2018-06-21T04:03:20.436Z,16.03
2018-06-21T04:04:20.419Z,16.01
2018-06-21T04:05:20.427Z,16.15
2018-06-21T04:06:20.397Z,16.04
2018-06-21T04:07:20.381Z,16.07
2018-06-21T04:08:20.425Z,16.20
2018-06-21T04:09:20.355Z,16.22
2018-06-21T04:10:20.336Z,16.37
2018-06-21T04:11:20.328Z,16.31
2018-06-21T04:12:20.313Z,16.33
2018-06-21T04:13:20.302Z,16.31
2018-06-21T04:14:20.281Z,16.37
2018-06-21T04:15:20.272Z,16.37
2018-06-21T04:16:20.253Z,16.37
2018-06-21T04:17:20.243Z,16.35
2018-06-21T04:18:20.227Z,16.41
2018-06-21T04:19:20.215Z,16.44
2018-06-21T04:20:20.205Z,16.30
2018-06-21T04:21:20.195Z,16.42
2018-06-21T04:22:20.170Z,16.35
2018-06-21T04:23:20.160Z,16.41
2018-06-21T04:24:20.144Z,16.53
2018-06-21T04:25:20.128Z,16.62
2018-06-21T04:26:20.122Z,16.65
2018-06-21T04:27:20.105Z,16.68
2018-06-21T04:28:20.090Z,16.74
2018-06-21T04:29:20.077Z,16.67
2018-06-21T04:30:20.070Z,16.75
2018-06-21T04:31:20.054Z,16.74
2018-06-21T04:32:20.132Z,16.74
2018-06-21T04:33:20.026Z,16.77
2018-06-21T04:34:20.011Z,16.74
2018-06-21T04:35:19.995Z,16.83
2018-06-21T04:36:19.981Z,16.77
2018-06-21T04:37:19.969Z,16.89
2018-06-21T04:38:19.962Z,16.85
2018-06-21T04:39:19.939Z,16.85
2018-06-21T04:40:19.930Z,16.85
2018-06-21T04:41:19.914Z,17.06
2018-06-21T04:42:19.904Z,17.08
2018-06-21T04:43:19.886Z,17.18
2018-06-21T04:44:19.879Z,17.17
2018-06-21T04:45:19.866Z,17.32
2018-06-21T04:46:19.854Z,17.44
2018-06-21T04:47:19.840Z,17.63
2018-06-21T04:48:19.823Z,17.73
2018-06-21T04:49:19.815Z,17.85
2018-06-21T04:50:19.803Z,17.89
2018-06-21T04:51:19.789Z,17.97
2018-06-21T04:52:19.776Z,18.07
2018-06-21T04:53:19.761Z,18.13
2018-06-21T04:54:19.751Z,18.27
2018-06-21T04:55:19.732Z,18.25
2018-06-21T04:56:19.719Z,18.34
2018-06-21T04:57:19.713Z,18.39
2018-06-21T04:58:19.697Z,18.46
2018-06-21T04:59:19.684Z,18.57
2018-06-21T05:00:19.671Z,18.72
2018-06-21T05:01:19.663Z,18.87
2018-06-21T05:02:19.652Z,18.97
2018-06-21T05:03:19.641Z,18.99
2018-06-21T05:04:19.629Z,19.05
2018-06-21T05:05:19.609Z,19.06
2018-06-21T05:06:19.608Z,19.11
2018-06-21T05:07:19.586Z,19.21
2018-06-21T05:08:19.578Z,19.24
2018-06-21T05:09:19.566Z,19.40
2018-06-21T05:10:19.552Z,19.48
2018-06-21T05:11:19.545Z,19.48
2018-06-21T05:12:19.528Z,19.58
2018-06-21T05:13:19.521Z,19.58
2018-06-21T05:14:19.509Z,19.53
2018-06-21T05:15:19.490Z,19.51
2018-06-21T05:16:19.481Z,19.55
2018-06-21T05:17:19.475Z,19.60
2018-06-21T05:18:19.524Z,19.72
2018-06-21T05:19:19.452Z,19.66
2018-06-21T05:20:19.439Z,19.66
2018-06-21T05:21:19.424Z,19.63
2018-06-21T05:22:19.418Z,19.65
2018-06-21T05:23:19.409Z,19.66
2018-06-21T05:24:19.389Z,19.69
2018-06-21T05:25:19.939Z,19.70
2018-06-21T05:26:19.371Z,19.65
2018-06-21T05:27:19.361Z,19.69
2018-06-21T05:28:19.351Z,19.65
2018-06-21T05:29:19.338Z,19.69
2018-06-21T05:30:19.333Z,19.69
2018-06-21T05:31:19.313Z,19.68
2018-06-21T05:32:19.534Z,19.70
2018-06-21T05:33:19.290Z,19.78
2018-06-21T05:34:19.284Z,19.73
2018-06-21T05:35:19.271Z,19.88
2018-06-21T05:36:19.270Z,19.94
2018-06-21T05:37:19.259Z,20.03
2018-06-21T05:38:19.232Z,20.16
2018-06-21T05:39:19.239Z,20.30
2018-06-21T05:40:19.218Z,20.31
2018-06-21T05:41:19.208Z,20.42
2018-06-21T05:42:19.192Z,20.53
2018-06-21T05:43:19.180Z,20.61
2018-06-21T05:44:19.216Z,20.53
2018-06-21T05:45:19.161Z,20.69
2018-06-21T05:46:19.151Z,20.69
2018-06-21T05:47:19.142Z,20.79
2018-06-21T05:48:19.129Z,20.83
2018-06-21T05:49:19.119Z,20.99
2018-06-21T05:50:19.153Z,20.99
2018-06-21T05:51:19.093Z,21.06
2018-06-21T05:52:19.093Z,21.23
2018-06-21T05:53:19.084Z,21.34
2018-06-21T05:54:19.068Z,21.46
2018-06-21T05:55:19.052Z,21.66
2018-06-21T05:56:19.052Z,21.78
2018-06-21T05:57:19.036Z,21.83
2018-06-21T05:58:19.026Z,21.91
2018-06-21T05:59:19.016Z,22.09
2018-06-21T06:00:19.006Z,22.09
2018-06-21T06:01:18.993Z,22.09
2018-06-21T06:02:18.988Z,22.16
2018-06-21T06:03:18.974Z,22.16
2018-06-21T06:04:18.961Z,22.14
2018-06-21T06:05:18.955Z,22.10
2018-06-21T06:06:18.946Z,22.14
2018-06-21T06:07:18.926Z,22.19
2018-06-21T06:08:18.982Z,22.31
2018-06-21T06:09:18.907Z,22.23
2018-06-21T06:10:18.897Z,22.31
2018-06-21T06:11:18.887Z,22.31
2018-06-21T06:12:18.879Z,22.29
2018-06-21T06:13:18.869Z,22.35
2018-06-21T06:14:18.864Z,22.44
2018-06-21T06:15:18.852Z,22.60
2018-06-21T06:16:18.844Z,22.54
2018-06-21T06:17:18.834Z,22.64
2018-06-21T06:18:18.822Z,22.57
2018-06-21T06:19:18.817Z,22.67
2018-06-21T06:20:18.810Z,22.69
2018-06-21T06:21:18.788Z,22.71
2018-06-21T06:22:18.791Z,22.78
2018-06-21T06:23:18.782Z,22.84
2018-06-21T06:24:18.765Z,22.94
2018-06-21T06:25:18.752Z,22.92
2018-06-21T06:26:18.749Z,22.97
2018-06-21T06:27:18.733Z,22.99
2018-06-21T06:28:18.721Z,22.89
2018-06-21T06:29:18.723Z,23.02
2018-06-21T06:30:18.701Z,23.04
2018-06-21T06:31:18.693Z,23.12
2018-06-21T06:32:18.682Z,23.05
2018-06-21T06:33:18.685Z,23.05
2018-06-21T06:34:18.675Z,23.02
2018-06-21T06:35:18.657Z,23.15
2018-06-21T06:36:18.650Z,23.24
2018-06-21T06:37:18.638Z,23.24
2018-06-21T06:38:18.628Z,23.22
2018-06-21T06:39:18.618Z,23.26
2018-06-21T06:40:18.659Z,23.20
2018-06-21T06:41:18.602Z,23.34
2018-06-21T06:42:18.596Z,23.29
2018-06-21T06:43:18.588Z,23.34
2018-06-21T06:44:18.573Z,23.47
2018-06-21T06:45:18.565Z,23.47
2018-06-21T06:46:18.565Z,23.49
2018-06-21T06:47:18.548Z,23.52
2018-06-21T06:48:18.538Z,23.75
2018-06-21T06:49:18.529Z,23.70
2018-06-21T06:50:18.519Z,23.82
2018-06-21T06:51:18.513Z,23.89
2018-06-21T06:52:18.503Z,23.95
2018-06-21T06:53:18.497Z,23.95
2018-06-21T06:54:18.554Z,24.13
2018-06-21T06:55:18.479Z,24.22
2018-06-21T06:56:18.467Z,24.31
2018-06-21T06:57:18.452Z,24.32
2018-06-21T06:58:18.448Z,24.49
2018-06-21T06:59:18.442Z,24.57
2018-06-21T07:00:18.439Z,24.67
2018-06-21T07:01:18.426Z,24.95
2018-06-21T07:02:18.420Z,25.07
2018-06-21T07:03:18.410Z,25.01
2018-06-21T07:04:18.404Z,25.05
2018-06-21T07:05:18.391Z,24.94
2018-06-21T07:06:18.383Z,24.90
2018-06-21T07:07:18.374Z,24.87
2018-06-21T07:08:18.443Z,24.64
2018-06-21T07:09:18.362Z,24.64
2018-06-21T07:10:18.355Z,24.68
2018-06-21T07:11:18.345Z,24.73
2018-06-21T07:12:18.340Z,24.68
2018-06-21T07:13:18.333Z,24.53
2018-06-21T07:14:18.357Z,24.31
2018-06-21T07:15:18.318Z,24.27
2018-06-21T07:16:18.304Z,24.34
2018-06-21T07:17:18.301Z,24.44
2018-06-21T07:18:18.305Z,24.32
2018-06-21T07:19:18.282Z,24.47
2018-06-21T07:20:18.332Z,24.64
2018-06-21T07:21:18.269Z,24.50
2018-06-21T07:22:18.262Z,24.60
2018-06-21T07:23:18.260Z,24.64
2018-06-21T07:24:18.250Z,24.83
2018-06-21T07:25:18.250Z,24.67
2018-06-21T07:26:18.234Z,24.49
2018-06-21T07:27:18.230Z,24.44
2018-06-21T07:28:18.226Z,24.35
2018-06-21T07:29:18.217Z,24.29
2018-06-21T07:30:18.207Z,24.26
2018-06-21T07:31:18.198Z,24.27
2018-06-21T07:32:18.191Z,24.83
2018-06-21T07:33:18.184Z,25.38
2018-06-21T07:34:18.182Z,25.86
2018-06-21T07:35:18.177Z,26.28
2018-06-21T07:36:18.163Z,26.49
2018-06-21T07:37:18.159Z,26.81
2018-06-21T07:38:18.153Z,26.49
2018-06-21T07:39:18.147Z,26.02
2018-06-21T07:40:18.147Z,25.74
2018-06-21T07:41:18.134Z,25.44
2018-06-21T07:42:18.130Z,25.62
2018-06-21T07:43:18.128Z,25.93
2018-06-21T07:44:18.128Z,25.94
2018-06-21T07:45:18.114Z,25.91
2018-06-21T07:46:18.112Z,25.98
2018-06-21T07:47:18.102Z,26.12
2018-06-21T07:48:18.093Z,26.29
2018-06-21T07:49:18.096Z,26.24
2018-06-21T07:50:18.082Z,25.91
2018-06-21T07:51:18.076Z,25.82
2018-06-21T07:52:18.074Z,25.79
2018-06-21T07:53:18.070Z,25.80
2018-06-21T07:54:18.067Z,25.83
2018-06-21T07:55:18.063Z,25.80
2018-06-21T07:56:18.054Z,25.87
2018-06-21T07:57:18.047Z,25.75
2018-06-21T07:58:18.047Z,25.62
2018-06-21T07:59:18.032Z,25.52
2018-06-21T08:00:18.030Z,25.34
2018-06-21T08:01:18.023Z,25.12
2018-06-21T08:02:18.021Z,25.38
2018-06-21T08:03:18.013Z,25.46
2018-06-21T08:04:18.011Z,25.93
2018-06-21T08:05:18.008Z,26.39
2018-06-21T08:06:18.002Z,26.62
2018-06-21T08:07:17.995Z,26.87
2018-06-21T08:08:17.989Z,26.91
2018-06-21T08:09:17.981Z,26.64
2018-06-21T08:10:17.972Z,26.57
2018-06-21T08:11:17.972Z,26.42
2018-06-21T08:12:17.963Z,26.52
2018-06-21T08:13:17.957Z,26.77
2018-06-21T08:14:17.956Z,26.65
2018-06-21T08:15:17.947Z,26.64
2018-06-21T08:16:17.940Z,26.64
2018-06-21T08:17:17.937Z,26.29
2018-06-21T08:18:17.934Z,26.06
2018-06-21T08:19:17.925Z,25.77
2018-06-21T08:20:17.957Z,25.79
2018-06-21T08:21:17.912Z,25.79
2018-06-21T08:22:17.912Z,25.62
2018-06-21T08:23:17.930Z,25.22
2018-06-21T08:24:17.905Z,25.19
2018-06-21T08:25:17.902Z,25.22
2018-06-21T08:26:17.889Z,25.22
2018-06-21T08:27:17.883Z,25.44
2018-06-21T08:28:17.881Z,25.22
2018-06-21T08:29:17.878Z,25.13
2018-06-21T08:30:17.880Z,25.06
2018-06-21T08:31:17.867Z,25.09
2018-06-21T08:32:17.918Z,25.31
2018-06-21T08:33:17.858Z,25.39
2018-06-21T08:34:17.851Z,25.54
2018-06-21T08:35:17.841Z,25.61
2018-06-21T08:36:17.835Z,25.65
2018-06-21T08:37:17.835Z,25.79
2018-06-21T08:38:17.822Z,25.89
2018-06-21T08:39:17.816Z,25.52
2018-06-21T08:40:17.816Z,25.37
2018-06-21T08:41:17.809Z,25.32
2018-06-21T08:42:17.806Z,25.44
2018-06-21T08:43:17.793Z,25.74
2018-06-21T08:44:17.788Z,26.05
2018-06-21T08:45:17.798Z,26.55
2018-06-21T08:46:17.778Z,26.77
2018-06-21T08:47:17.778Z,26.44
2018-06-21T08:48:17.771Z,26.31
2018-06-21T08:49:17.768Z,26.74
2018-06-21T08:50:17.756Z,27.06
2018-06-21T08:51:17.752Z,26.91
2018-06-21T08:52:17.749Z,26.59
2018-06-21T08:53:17.742Z,26.22
2018-06-21T08:54:17.740Z,26.15
2018-06-21T08:55:17.732Z,26.21
2018-06-21T08:56:17.764Z,25.93
2018-06-21T08:57:17.727Z,25.98
2018-06-21T08:58:17.753Z,26.31
2018-06-21T08:59:17.714Z,26.28
2018-06-21T09:00:17.704Z,26.06
2018-06-21T09:01:17.698Z,26.18
2018-06-21T09:02:17.701Z,26.02
2018-06-21T09:03:17.695Z,26.01
2018-06-21T09:04:17.688Z,26.09
2018-06-21T09:05:17.679Z,26.05
2018-06-21T09:06:17.676Z,26.08
2018-06-21T09:07:17.672Z,26.46
2018-06-21T09:08:17.669Z,26.61
2018-06-21T09:09:17.660Z,26.84
2018-06-21T09:10:17.653Z,26.77
2018-06-21T10:03:24.077Z,25.34
2018-06-21T10:04:23.455Z,25.42
2018-06-21T10:05:23.352Z,25.32
2018-06-21T10:06:23.339Z,25.32
2018-06-21T10:07:23.333Z,25.38
2018-06-21T10:08:23.326Z,25.39
2018-06-21T10:09:23.330Z,25.34
2018-06-21T10:10:23.324Z,25.34
2018-06-21T10:11:23.310Z,25.43
2018-06-21T10:12:23.339Z,25.77
2018-06-21T10:13:23.342Z,25.75
2018-06-21T10:14:23.327Z,25.80
2018-06-21T10:15:23.310Z,26.35
2018-06-21T10:16:23.310Z,26.59
2018-06-21T10:17:23.304Z,27.04
2018-06-21T10:18:23.299Z,27.41
2018-06-21T10:19:23.304Z,27.67
2018-06-21T10:20:23.299Z,27.84
2018-06-21T10:21:23.279Z,27.73
2018-06-21T10:22:23.284Z,27.76
2018-06-21T10:23:23.266Z,27.73
2018-06-21T10:24:23.281Z,27.92
2018-06-21T10:25:23.269Z,28.03
2018-06-21T10:26:23.273Z,27.79
2018-06-21T10:27:23.274Z,27.76
2018-06-21T10:28:23.269Z,27.71
2018-06-21T10:29:23.249Z,27.79
2018-06-21T10:30:23.260Z,27.62
2018-06-21T10:31:23.221Z,27.58
2018-06-21T10:32:23.224Z,27.64
2018-06-21T10:33:23.211Z,27.91
2018-06-21T10:34:23.220Z,28.22
2018-06-21T10:35:23.212Z,28.62
2018-06-21T10:36:23.206Z,28.91
2018-06-21T10:37:23.201Z,29.13
2018-06-21T10:38:23.206Z,28.95
2018-06-21T10:39:23.206Z,28.84
2018-06-21T10:40:23.195Z,28.62
2018-06-21T10:41:23.202Z,28.50
2018-06-21T10:42:23.198Z,28.70
2018-06-21T10:43:23.192Z,28.91
2018-06-21T10:44:23.198Z,29.38
2018-06-21T10:45:23.196Z,29.01
2018-06-21T10:46:23.189Z,28.43
2018-06-21T10:47:23.189Z,27.73
2018-06-21T10:48:23.192Z,27.06
2018-06-21T10:49:23.198Z,26.52
2018-06-21T10:50:23.185Z,26.06
2018-06-21T10:51:23.196Z,25.80
2018-06-21T10:52:23.191Z,25.56
2018-06-21T10:53:23.189Z,25.46
2018-06-21T10:54:23.188Z,24.97
2018-06-21T10:55:23.176Z,24.32
2018-06-21T10:56:23.173Z,24.08
2018-06-21T10:57:23.183Z,23.75
2018-06-21T10:58:23.169Z,23.57
2018-06-21T10:59:23.166Z,23.34
2018-06-21T11:00:23.158Z,23.09
2018-06-21T11:01:23.160Z,23.12
2018-06-21T11:02:23.159Z,23.07
2018-06-21T11:03:23.182Z,23.04
2018-06-21T11:04:23.169Z,23.22
2018-06-21T11:05:23.177Z,23.35
2018-06-21T11:06:23.164Z,23.53
2018-06-21T11:07:23.151Z,23.65
2018-06-21T11:08:23.148Z,23.67
2018-06-21T11:09:23.134Z,23.64
2018-06-21T11:10:23.145Z,23.46
2018-06-21T11:11:23.122Z,23.38
2018-06-21T11:12:23.107Z,23.35
2018-06-21T11:13:23.096Z,23.23
2018-06-21T11:14:23.089Z,23.24
2018-06-21T11:15:23.084Z,23.15
2018-06-21T11:16:23.074Z,23.22
2018-06-21T11:17:23.061Z,23.23
2018-06-21T11:18:23.060Z,23.40
2018-06-21T11:19:23.054Z,23.58
2018-06-21T11:20:23.054Z,23.82
2018-06-21T11:21:23.053Z,24.02
2018-06-21T11:22:23.050Z,24.29
2018-06-21T11:23:23.035Z,24.61
2018-06-21T11:24:23.031Z,24.94
2018-06-21T11:25:23.024Z,24.88
2018-06-21T11:26:23.012Z,24.64
2018-06-21T11:27:23.012Z,24.38
2018-06-21T11:28:23.002Z,24.26
2018-06-21T11:29:23.004Z,24.29
2018-06-21T11:30:22.993Z,24.24
2018-06-21T11:31:22.989Z,23.97
2018-06-21T11:32:22.989Z,23.72
2018-06-21T11:33:22.983Z,23.62
2018-06-21T11:34:22.982Z,23.34
2018-06-21T11:35:22.973Z,23.29
2018-06-21T11:36:22.961Z,23.15
2018-06-21T11:37:22.957Z,23.09
2018-06-21T11:38:22.959Z,23.01
2018-06-21T11:39:22.952Z,23.05
2018-06-21T11:40:22.938Z,22.78
2018-06-21T11:41:22.932Z,22.44
2018-06-21T11:42:22.934Z,22.13
2018-06-21T11:43:22.922Z,21.95
2018-06-21T11:44:22.916Z,21.79
2018-06-21T11:45:22.922Z,21.67
2018-06-21T11:46:22.904Z,21.56
2018-06-21T11:47:22.900Z,21.50
2018-06-21T11:48:22.894Z,21.41
2018-06-21T11:49:22.884Z,21.32
2018-06-21T11:50:22.878Z,21.30
2018-06-21T11:51:22.868Z,21.21
2018-06-21T11:52:22.903Z,21.26
2018-06-21T11:53:22.854Z,21.17
2018-06-21T11:54:22.849Z,21.23
2018-06-21T11:55:22.846Z,21.23
2018-06-21T11:56:22.829Z,21.29
2018-06-21T11:57:22.818Z,21.08
2018-06-21T11:58:22.816Z,21.05
2018-06-21T11:59:22.809Z,21.05
2018-06-21T12:00:22.796Z,20.96
2018-06-21T12:01:22.797Z,21.04
2018-06-21T12:02:22.777Z,21.05
2018-06-21T12:03:22.783Z,21.13
2018-06-21T12:04:22.761Z,21.20
2018-06-21T12:05:22.761Z,21.27
2018-06-21T12:06:22.743Z,21.39
2018-06-21T12:07:22.736Z,21.34
2018-06-21T12:08:22.732Z,21.46
2018-06-21T12:09:22.720Z,21.72
2018-06-21T12:10:22.717Z,21.97
2018-06-21T12:11:22.701Z,22.20
2018-06-21T12:12:22.694Z,22.41
2018-06-21T12:13:22.688Z,22.47
2018-06-21T12:14:22.681Z,22.43
2018-06-21T12:15:22.672Z,22.60
2018-06-21T12:16:22.663Z,22.60
2018-06-21T12:17:22.649Z,22.69
2018-06-21T12:18:22.646Z,22.60
2018-06-21T12:19:22.638Z,22.59
2018-06-21T12:20:22.633Z,22.54
2018-06-21T12:21:22.618Z,22.77
2018-06-21T12:22:22.609Z,22.92
2018-06-21T12:23:22.605Z,23.05
2018-06-21T12:24:22.592Z,23.64
2018-06-21T12:25:22.622Z,24.08
2018-06-21T12:26:22.621Z,24.53
2018-06-21T12:27:22.580Z,24.37
2018-06-21T12:28:22.572Z,24.34
2018-06-21T12:29:22.568Z,24.63
2018-06-21T12:30:22.564Z,24.85
2018-06-21T12:31:22.557Z,24.98
2018-06-21T12:32:22.544Z,25.02
2018-06-21T12:33:22.547Z,25.28
2018-06-21T12:34:22.538Z,25.52
2018-06-21T12:35:22.535Z,25.65
2018-06-21T12:36:22.528Z,25.50
2018-06-21T12:37:22.528Z,25.99
2018-06-21T12:38:22.523Z,26.28
2018-06-21T12:39:22.525Z,26.32
2018-06-21T12:40:22.516Z,26.80
2018-06-21T12:41:22.516Z,27.26
2018-06-21T12:42:22.515Z,27.05
2018-06-21T12:43:22.512Z,27.31
2018-06-21T12:44:22.509Z,27.99
2018-06-21T12:45:22.515Z,28.58
2018-06-21T12:46:22.512Z,28.48
2018-06-21T12:47:22.509Z,28.54
2018-06-21T12:48:22.513Z,27.98
2018-06-21T12:49:22.512Z,27.38
2018-06-21T12:50:22.518Z,26.59
2018-06-21T12:51:22.519Z,25.94
2018-06-21T12:52:22.519Z,25.50
2018-06-21T12:53:22.512Z,25.39
2018-06-21T12:54:22.541Z,25.01
2018-06-21T12:55:22.509Z,25.16
2018-06-21T12:58:07.376Z,25.13
2018-06-21T12:58:54.602Z,25.25
2018-06-21T12:59:54.598Z,25.34
2018-06-21T13:00:54.602Z,25.43
2018-06-21T13:01:54.595Z,25.77
2018-06-21T13:02:54.599Z,25.71
2018-06-21T13:03:54.592Z,25.82
2018-06-21T13:04:54.593Z,26.40
2018-06-21T13:05:54.586Z,26.76
2018-06-21T13:06:54.582Z,27.50
2018-06-21T13:07:54.582Z,27.59
2018-06-21T13:08:54.580Z,27.96
2018-06-21T13:09:54.582Z,27.89
2018-06-21T13:10:54.574Z,26.99
2018-06-21T13:11:54.573Z,26.98
2018-06-21T13:12:54.579Z,26.92
2018-06-21T13:13:54.573Z,27.11
2018-06-21T13:14:54.578Z,26.72
2018-06-21T13:15:54.570Z,26.83
2018-06-21T13:16:54.574Z,26.98
2018-06-21T13:17:54.569Z,26.96
2018-06-21T13:18:54.569Z,26.18
2018-06-21T13:19:54.572Z,25.80
2018-06-21T13:20:54.573Z,25.43
2018-06-21T13:21:54.566Z,25.77
2018-06-21T13:22:54.570Z,26.29
2018-06-21T13:23:54.564Z,26.02
2018-06-21T13:24:54.636Z,25.61
2018-06-21T13:25:54.573Z,25.86
2018-06-21T13:26:54.566Z,26.64
2018-06-21T13:27:54.560Z,26.47
2018-06-21T13:28:54.563Z,26.46
2018-06-21T13:29:54.554Z,25.98
2018-06-21T13:30:54.556Z,26.36
2018-06-21T13:31:54.554Z,26.80
2018-06-21T13:32:54.550Z,27.54
2018-06-21T13:33:54.553Z,28.06
2018-06-21T13:34:54.569Z,28.29
2018-06-21T13:35:54.567Z,28.69
2018-06-21T13:36:54.549Z,28.72
2018-06-21T13:37:54.551Z,28.68
2018-06-21T13:38:54.550Z,28.73
2018-06-21T13:39:54.552Z,28.68
2018-06-21T13:40:54.557Z,28.93
2018-06-21T13:41:54.559Z,28.87
2018-06-21T13:42:54.566Z,28.68
2018-06-21T13:43:54.567Z,28.88
2018-06-21T13:44:54.566Z,28.77
2018-06-21T13:45:54.563Z,28.91